sensor_id;sensor_type;location;lat;lon;timestamp;P1;durP1;ratioP1;P2;durP2;ratioP2
62610;SDS011;48683;48.084;17.272;2023-03-04T00:00:46;52.85;;;26.45;;
62610;SDS011;48683;48.084;17.272;2023-03-04T00:03:11;50.22;;;24.40;;
62610;SDS011;48683;48.084;17.272;2023-03-04T00:05:39;51.90;;;26.88;;
62610;SDS011;48683;48.084;17.272;2023-03-04T00:08:04;56.70;;;26.85;;
62610;SDS011;48683;48.084;17.272;2023-03-04T00:10:30;52.22;;;25.13;;
62610;SDS011;48683;48.084;17.272;2023-03-04T00:12:55;53.45;;;25.98;;
62610;SDS011;48683;48.084;17.272;2023-03-04T00:15:20;51.03;;;25.52;;
62610;SDS011;48683;48.084;17.272;2023-03-04T00:17:46;53.35;;;25.85;;
62610;SDS011;48683;48.084;17.272;2023-03-04T00:20:11;52.85;;;26.25;;
62610;SDS011;48683;48.084;17.272;2023-03-04T00:22:37;51.75;;;24.95;;
62610;SDS011;48683;48.084;17.272;2023-03-04T00:25:02;50.38;;;25.00;;
62610;SDS011;48683;48.084;17.272;2023-03-04T00:27:28;51.90;;;25.60;;
62610;SDS011;48683;48.084;17.272;2023-03-04T00:29:54;54.22;;;25.65;;
62610;SDS011;48683;48.084;17.272;2023-03-04T00:32:19;50.33;;;25.27;;
62610;SDS011;48683;48.084;17.272;2023-03-04T00:34:45;53.70;;;24.33;;
62610;SDS011;48683;48.084;17.272;2023-03-04T00:37:10;54.47;;;26.00;;
62610;SDS011;48683;48.084;17.272;2023-03-04T00:39:35;51.13;;;25.17;;
62610;SDS011;48683;48.084;17.272;2023-03-04T00:42:01;50.17;;;24.75;;
62610;SDS011;48683;48.084;17.272;2023-03-04T00:44:26;48.38;;;25.15;;
62610;SDS011;48683;48.084;17.272;2023-03-04T00:46:51;51.80;;;25.33;;
62610;SDS011;48683;48.084;17.272;2023-03-04T00:49:17;59.35;;;25.65;;
62610;SDS011;48683;48.084;17.272;2023-03-04T00:51:42;54.75;;;25.70;;
62610;SDS011;48683;48.084;17.272;2023-03-04T00:54:08;51.22;;;25.35;;
62610;SDS011;48683;48.084;17.272;2023-03-04T00:56:33;57.80;;;25.45;;
62610;SDS011;48683;48.084;17.272;2023-03-04T00:58:58;52.50;;;26.17;;
62610;SDS011;48683;48.084;17.272;2023-03-04T01:01:24;54.42;;;25.77;;
62610;SDS011;48683;48.084;17.272;2023-03-04T01:03:49;53.53;;;25.02;;
62610;SDS011;48683;48.084;17.272;2023-03-04T01:06:14;53.47;;;26.17;;
62610;SDS011;48683;48.084;17.272;2023-03-04T01:08:40;52.10;;;24.90;;
62610;SDS011;48683;48.084;17.272;2023-03-04T01:11:05;54.10;;;24.20;;
62610;SDS011;48683;48.084;17.272;2023-03-04T01:13:31;52.75;;;25.90;;
62610;SDS011;48683;48.084;17.272;2023-03-04T01:15:57;50.30;;;23.60;;
62610;SDS011;48683;48.084;17.272;2023-03-04T01:18:23;58.20;;;25.58;;
62610;SDS011;48683;48.084;17.272;2023-03-04T01:20:48;50.50;;;24.65;;
62610;SDS011;48683;48.084;17.272;2023-03-04T01:23:14;53.25;;;24.38;;
62610;SDS011;48683;48.084;17.272;2023-03-04T01:25:39;56.75;;;25.50;;
62610;SDS011;48683;48.084;17.272;2023-03-04T01:28:04;57.70;;;26.60;;
62610;SDS011;48683;48.084;17.272;2023-03-04T01:30:30;54.38;;;27.17;;
62610;SDS011;48683;48.084;17.272;2023-03-04T01:32:55;58.78;;;25.50;;
62610;SDS011;48683;48.084;17.272;2023-03-04T01:35:21;54.08;;;25.67;;
62610;SDS011;48683;48.084;17.272;2023-03-04T01:37:47;49.75;;;25.35;;
62610;SDS011;48683;48.084;17.272;2023-03-04T01:40:12;52.53;;;25.75;;
62610;SDS011;48683;48.084;17.272;2023-03-04T01:42:38;57.88;;;26.95;;
62610;SDS011;48683;48.084;17.272;2023-03-04T01:45:04;52.40;;;25.60;;
62610;SDS011;48683;48.084;17.272;2023-03-04T01:47:30;52.40;;;26.10;;
62610;SDS011;48683;48.084;17.272;2023-03-04T01:49:58;50.45;;;24.23;;
62610;SDS011;48683;48.084;17.272;2023-03-04T01:52:26;55.08;;;25.25;;
62610;SDS011;48683;48.084;17.272;2023-03-04T01:54:52;47.33;;;24.42;;
62610;SDS011;48683;48.084;17.272;2023-03-04T01:57:18;55.63;;;27.15;;
62610;SDS011;48683;48.084;17.272;2023-03-04T02:00:10;52.10;;;25.05;;
62610;SDS011;48683;48.084;17.272;2023-03-04T02:02:52;51.13;;;24.95;;
62610;SDS011;48683;48.084;17.272;2023-03-04T02:05:21;59.10;;;26.38;;
62610;SDS011;48683;48.084;17.272;2023-03-04T02:07:47;55.17;;;27.52;;
62610;SDS011;48683;48.084;17.272;2023-03-04T02:10:13;56.20;;;27.10;;
62610;SDS011;48683;48.084;17.272;2023-03-04T02:12:38;56.78;;;28.23;;
62610;SDS011;48683;48.084;17.272;2023-03-04T02:15:04;50.20;;;26.42;;
62610;SDS011;48683;48.084;17.272;2023-03-04T02:17:30;53.70;;;26.80;;
62610;SDS011;48683;48.084;17.272;2023-03-04T02:22:50;51.72;;;25.30;;
62610;SDS011;48683;48.084;17.272;2023-03-04T02:28:22;52.35;;;25.55;;
62610;SDS011;48683;48.084;17.272;2023-03-04T02:30:47;50.20;;;25.08;;
62610;SDS011;48683;48.084;17.272;2023-03-04T02:33:13;51.30;;;24.95;;
62610;SDS011;48683;48.084;17.272;2023-03-04T02:35:41;50.25;;;24.67;;
62610;SDS011;48683;48.084;17.272;2023-03-04T02:38:08;49.92;;;25.17;;
62610;SDS011;48683;48.084;17.272;2023-03-04T02:40:34;54.47;;;26.27;;
62610;SDS011;48683;48.084;17.272;2023-03-04T02:43:00;50.58;;;25.80;;
62610;SDS011;48683;48.084;17.272;2023-03-04T02:45:47;55.80;;;26.30;;
62610;SDS011;48683;48.084;17.272;2023-03-04T02:48:16;56.88;;;26.55;;
62610;SDS011;48683;48.084;17.272;2023-03-04T02:50:48;57.42;;;25.77;;
62610;SDS011;48683;48.084;17.272;2023-03-04T02:53:15;51.60;;;25.02;;
62610;SDS011;48683;48.084;17.272;2023-03-04T02:55:41;53.88;;;25.52;;
62610;SDS011;48683;48.084;17.272;2023-03-04T02:58:07;53.60;;;25.38;;
62610;SDS011;48683;48.084;17.272;2023-03-04T03:00:33;55.53;;;25.20;;
62610;SDS011;48683;48.084;17.272;2023-03-04T03:02:58;48.90;;;24.20;;
62610;SDS011;48683;48.084;17.272;2023-03-04T03:05:24;52.45;;;24.15;;
62610;SDS011;48683;48.084;17.272;2023-03-04T03:07:51;61.92;;;26.25;;
62610;SDS011;48683;48.084;17.272;2023-03-04T03:10:17;53.47;;;25.05;;
62610;SDS011;48683;48.084;17.272;2023-03-04T03:12:43;53.05;;;25.17;;
62610;SDS011;48683;48.084;17.272;2023-03-04T03:15:09;51.20;;;24.63;;
62610;SDS011;48683;48.084;17.272;2023-03-04T03:17:34;50.13;;;23.73;;
62610;SDS011;48683;48.084;17.272;2023-03-04T03:20:00;48.40;;;22.92;;
62610;SDS011;48683;48.084;17.272;2023-03-04T03:22:25;46.97;;;23.67;;
62610;SDS011;48683;48.084;17.272;2023-03-04T03:24:50;54.10;;;25.27;;
62610;SDS011;48683;48.084;17.272;2023-03-04T03:27:16;53.65;;;23.40;;
62610;SDS011;48683;48.084;17.272;2023-03-04T03:29:41;53.55;;;24.65;;
62610;SDS011;48683;48.084;17.272;2023-03-04T03:32:06;50.60;;;24.05;;
62610;SDS011;48683;48.084;17.272;2023-03-04T03:34:32;49.83;;;23.35;;
62610;SDS011;48683;48.084;17.272;2023-03-04T03:36:58;53.60;;;24.33;;
62610;SDS011;48683;48.084;17.272;2023-03-04T03:39:23;56.15;;;26.75;;
62610;SDS011;48683;48.084;17.272;2023-03-04T03:41:48;49.88;;;24.30;;
62610;SDS011;48683;48.084;17.272;2023-03-04T03:44:14;51.00;;;24.85;;
62610;SDS011;48683;48.084;17.272;2023-03-04T03:46:39;53.50;;;24.90;;
62610;SDS011;48683;48.084;17.272;2023-03-04T03:49:05;54.20;;;25.00;;
62610;SDS011;48683;48.084;17.272;2023-03-04T03:51:30;52.50;;;25.27;;
62610;SDS011;48683;48.084;17.272;2023-03-04T03:53:55;50.80;;;24.73;;
62610;SDS011;48683;48.084;17.272;2023-03-04T03:56:21;52.97;;;24.83;;
62610;SDS011;48683;48.084;17.272;2023-03-04T03:58:46;50.85;;;23.90;;
62610;SDS011;48683;48.084;17.272;2023-03-04T04:01:11;55.47;;;25.42;;
62610;SDS011;48683;48.084;17.272;2023-03-04T04:03:37;51.95;;;23.80;;
62610;SDS011;48683;48.084;17.272;2023-03-04T04:06:02;48.80;;;24.35;;
62610;SDS011;48683;48.084;17.272;2023-03-04T04:08:27;52.83;;;26.40;;
62610;SDS011;48683;48.084;17.272;2023-03-04T04:10:53;56.20;;;27.13;;
62610;SDS011;48683;48.084;17.272;2023-03-04T04:13:18;58.70;;;26.67;;
62610;SDS011;48683;48.084;17.272;2023-03-04T04:15:44;50.67;;;26.88;;
62610;SDS011;48683;48.084;17.272;2023-03-04T04:18:09;52.92;;;24.95;;
62610;SDS011;48683;48.084;17.272;2023-03-04T04:20:34;49.70;;;24.55;;
62610;SDS011;48683;48.084;17.272;2023-03-04T04:23:00;54.80;;;26.10;;
62610;SDS011;48683;48.084;17.272;2023-03-04T04:25:26;56.58;;;25.55;;
62610;SDS011;48683;48.084;17.272;2023-03-04T04:27:51;50.10;;;25.02;;
62610;SDS011;48683;48.084;17.272;2023-03-04T04:30:17;51.28;;;25.42;;
62610;SDS011;48683;48.084;17.272;2023-03-04T04:32:43;49.58;;;24.23;;
62610;SDS011;48683;48.084;17.272;2023-03-04T04:35:08;56.37;;;25.73;;
62610;SDS011;48683;48.084;17.272;2023-03-04T04:37:34;54.53;;;24.77;;
62610;SDS011;48683;48.084;17.272;2023-03-04T04:39:59;54.88;;;26.15;;
62610;SDS011;48683;48.084;17.272;2023-03-04T04:42:25;54.33;;;24.33;;
62610;SDS011;48683;48.084;17.272;2023-03-04T04:44:50;45.95;;;24.08;;
62610;SDS011;48683;48.084;17.272;2023-03-04T04:47:16;45.40;;;23.50;;
62610;SDS011;48683;48.084;17.272;2023-03-04T04:49:42;45.13;;;23.92;;
62610;SDS011;48683;48.084;17.272;2023-03-04T04:52:07;48.05;;;23.30;;
62610;SDS011;48683;48.084;17.272;2023-03-04T04:54:32;48.20;;;23.17;;
62610;SDS011;48683;48.084;17.272;2023-03-04T04:56:58;47.40;;;22.48;;
62610;SDS011;48683;48.084;17.272;2023-03-04T04:59:23;42.10;;;21.40;;
62610;SDS011;48683;48.084;17.272;2023-03-04T05:01:48;40.35;;;21.50;;
62610;SDS011;48683;48.084;17.272;2023-03-04T05:04:14;40.58;;;20.80;;
62610;SDS011;48683;48.084;17.272;2023-03-04T05:06:40;41.05;;;20.80;;
62610;SDS011;48683;48.084;17.272;2023-03-04T05:09:05;42.08;;;20.63;;
62610;SDS011;48683;48.084;17.272;2023-03-04T05:11:31;42.03;;;20.10;;
62610;SDS011;48683;48.084;17.272;2023-03-04T05:13:56;44.22;;;20.67;;
62610;SDS011;48683;48.084;17.272;2023-03-04T05:16:22;42.70;;;21.30;;
62610;SDS011;48683;48.084;17.272;2023-03-04T05:18:47;42.45;;;21.17;;
62610;SDS011;48683;48.084;17.272;2023-03-04T05:21:12;41.28;;;20.90;;
62610;SDS011;48683;48.084;17.272;2023-03-04T05:23:38;43.42;;;21.35;;
62610;SDS011;48683;48.084;17.272;2023-03-04T05:26:05;44.50;;;20.52;;
62610;SDS011;48683;48.084;17.272;2023-03-04T05:28:32;40.88;;;21.00;;
62610;SDS011;48683;48.084;17.272;2023-03-04T05:30:58;40.22;;;21.55;;
62610;SDS011;48683;48.084;17.272;2023-03-04T05:33:24;46.53;;;21.80;;
62610;SDS011;48683;48.084;17.272;2023-03-04T05:35:49;45.00;;;22.55;;
62610;SDS011;48683;48.084;17.272;2023-03-04T05:38:16;44.65;;;21.13;;
62610;SDS011;48683;48.084;17.272;2023-03-04T05:40:43;42.63;;;19.25;;
62610;SDS011;48683;48.084;17.272;2023-03-04T05:43:08;40.90;;;20.35;;
62610;SDS011;48683;48.084;17.272;2023-03-04T05:45:35;42.38;;;20.23;;
62610;SDS011;48683;48.084;17.272;2023-03-04T05:48:00;35.72;;;17.60;;
62610;SDS011;48683;48.084;17.272;2023-03-04T05:50:27;32.47;;;17.13;;
62610;SDS011;48683;48.084;17.272;2023-03-04T05:52:52;32.47;;;16.45;;
62610;SDS011;48683;48.084;17.272;2023-03-04T05:55:18;31.90;;;16.25;;
62610;SDS011;48683;48.084;17.272;2023-03-04T05:57:44;29.17;;;15.68;;
62610;SDS011;48683;48.084;17.272;2023-03-04T06:02:37;30.50;;;14.15;;
62610;SDS011;48683;48.084;17.272;2023-03-04T06:05:03;31.52;;;14.85;;
62610;SDS011;48683;48.084;17.272;2023-03-04T06:07:29;30.45;;;15.10;;
62610;SDS011;48683;48.084;17.272;2023-03-04T06:09:54;29.92;;;15.65;;
62610;SDS011;48683;48.084;17.272;2023-03-04T06:12:20;29.95;;;15.70;;
62610;SDS011;48683;48.084;17.272;2023-03-04T06:14:45;30.30;;;15.52;;
62610;SDS011;48683;48.084;17.272;2023-03-04T06:17:11;31.67;;;15.57;;
62610;SDS011;48683;48.084;17.272;2023-03-04T06:19:36;30.15;;;15.75;;
62610;SDS011;48683;48.084;17.272;2023-03-04T06:22:06;34.47;;;16.75;;
62610;SDS011;48683;48.084;17.272;2023-03-04T06:24:34;29.75;;;15.68;;
62610;SDS011;48683;48.084;17.272;2023-03-04T06:27:00;33.08;;;17.13;;
62610;SDS011;48683;48.084;17.272;2023-03-04T06:29:26;34.40;;;16.92;;
62610;SDS011;48683;48.084;17.272;2023-03-04T06:31:51;31.05;;;15.95;;
62610;SDS011;48683;48.084;17.272;2023-03-04T06:34:16;30.95;;;16.27;;
62610;SDS011;48683;48.084;17.272;2023-03-04T06:36:42;36.75;;;16.80;;
62610;SDS011;48683;48.084;17.272;2023-03-04T06:39:07;32.08;;;17.20;;
62610;SDS011;48683;48.084;17.272;2023-03-04T06:41:33;31.20;;;16.05;;
62610;SDS011;48683;48.084;17.272;2023-03-04T06:43:59;32.00;;;17.35;;
62610;SDS011;48683;48.084;17.272;2023-03-04T06:46:25;34.08;;;17.58;;
62610;SDS011;48683;48.084;17.272;2023-03-04T06:48:50;39.03;;;19.83;;
62610;SDS011;48683;48.084;17.272;2023-03-04T06:51:15;37.75;;;18.77;;
62610;SDS011;48683;48.084;17.272;2023-03-04T06:53:41;38.42;;;19.50;;
62610;SDS011;48683;48.084;17.272;2023-03-04T06:56:08;38.05;;;19.48;;
62610;SDS011;48683;48.084;17.272;2023-03-04T06:58:35;36.03;;;19.05;;
62610;SDS011;48683;48.084;17.272;2023-03-04T07:01:13;37.58;;;20.08;;
62610;SDS011;48683;48.084;17.272;2023-03-04T07:03:41;36.38;;;19.38;;
62610;SDS011;48683;48.084;17.272;2023-03-04T07:06:10;37.50;;;20.03;;
62610;SDS011;48683;48.084;17.272;2023-03-04T07:08:37;40.00;;;21.92;;
62610;SDS011;48683;48.084;17.272;2023-03-04T07:11:03;40.65;;;20.92;;
62610;SDS011;48683;48.084;17.272;2023-03-04T07:13:28;42.17;;;21.30;;
62610;SDS011;48683;48.084;17.272;2023-03-04T07:15:54;39.75;;;22.08;;
62610;SDS011;48683;48.084;17.272;2023-03-04T07:18:19;41.67;;;23.35;;
62610;SDS011;48683;48.084;17.272;2023-03-04T07:20:44;43.63;;;23.27;;
62610;SDS011;48683;48.084;17.272;2023-03-04T07:23:10;41.83;;;23.60;;
62610;SDS011;48683;48.084;17.272;2023-03-04T07:25:35;44.20;;;24.33;;
62610;SDS011;48683;48.084;17.272;2023-03-04T07:28:01;43.72;;;23.27;;
62610;SDS011;48683;48.084;17.272;2023-03-04T07:30:26;45.55;;;25.70;;
62610;SDS011;48683;48.084;17.272;2023-03-04T07:32:51;47.17;;;24.42;;
62610;SDS011;48683;48.084;17.272;2023-03-04T07:35:17;52.15;;;25.42;;
62610;SDS011;48683;48.084;17.272;2023-03-04T07:37:42;46.22;;;25.88;;
62610;SDS011;48683;48.084;17.272;2023-03-04T07:40:08;46.10;;;25.17;;
62610;SDS011;48683;48.084;17.272;2023-03-04T07:42:34;45.35;;;24.65;;
62610;SDS011;48683;48.084;17.272;2023-03-04T07:44:59;47.80;;;26.48;;
62610;SDS011;48683;48.084;17.272;2023-03-04T07:47:26;46.33;;;25.88;;
62610;SDS011;48683;48.084;17.272;2023-03-04T07:49:51;51.22;;;26.65;;
62610;SDS011;48683;48.084;17.272;2023-03-04T07:52:17;48.80;;;26.92;;
62610;SDS011;48683;48.084;17.272;2023-03-04T07:54:43;46.03;;;25.15;;
62610;SDS011;48683;48.084;17.272;2023-03-04T07:57:08;46.05;;;26.50;;
62610;SDS011;48683;48.084;17.272;2023-03-04T07:59:33;46.20;;;26.15;;
62610;SDS011;48683;48.084;17.272;2023-03-04T08:01:59;50.33;;;26.02;;
62610;SDS011;48683;48.084;17.272;2023-03-04T08:04:24;43.33;;;24.90;;
62610;SDS011;48683;48.084;17.272;2023-03-04T08:06:49;50.90;;;26.27;;
62610;SDS011;48683;48.084;17.272;2023-03-04T08:09:15;46.53;;;25.52;;
62610;SDS011;48683;48.084;17.272;2023-03-04T08:11:40;40.30;;;23.42;;
62610;SDS011;48683;48.084;17.272;2023-03-04T08:14:06;47.08;;;25.65;;
62610;SDS011;48683;48.084;17.272;2023-03-04T08:16:33;47.97;;;26.23;;
62610;SDS011;48683;48.084;17.272;2023-03-04T08:18:59;46.33;;;25.35;;
62610;SDS011;48683;48.084;17.272;2023-03-04T08:21:26;54.70;;;27.83;;
62610;SDS011;48683;48.084;17.272;2023-03-04T08:23:53;50.42;;;27.50;;
62610;SDS011;48683;48.084;17.272;2023-03-04T08:26:20;48.63;;;27.05;;
62610;SDS011;48683;48.084;17.272;2023-03-04T08:28:59;47.72;;;26.75;;
62610;SDS011;48683;48.084;17.272;2023-03-04T08:31:26;53.88;;;29.38;;
62610;SDS011;48683;48.084;17.272;2023-03-04T08:33:51;55.25;;;27.38;;
62610;SDS011;48683;48.084;17.272;2023-03-04T08:36:17;47.40;;;26.95;;
62610;SDS011;48683;48.084;17.272;2023-03-04T08:38:42;50.78;;;29.15;;
62610;SDS011;48683;48.084;17.272;2023-03-04T08:41:08;51.35;;;28.85;;
62610;SDS011;48683;48.084;17.272;2023-03-04T08:43:33;50.63;;;27.80;;
62610;SDS011;48683;48.084;17.272;2023-03-04T08:45:59;48.63;;;27.30;;
62610;SDS011;48683;48.084;17.272;2023-03-04T08:48:24;48.15;;;26.40;;
62610;SDS011;48683;48.084;17.272;2023-03-04T08:50:50;50.35;;;27.35;;
62610;SDS011;48683;48.084;17.272;2023-03-04T08:53:16;45.90;;;26.75;;
62610;SDS011;48683;48.084;17.272;2023-03-04T08:55:42;45.53;;;26.58;;
62610;SDS011;48683;48.084;17.272;2023-03-04T08:58:08;49.78;;;26.65;;
62610;SDS011;48683;48.084;17.272;2023-03-04T09:00:35;45.37;;;27.97;;
62610;SDS011;48683;48.084;17.272;2023-03-04T09:03:02;45.53;;;26.58;;
62610;SDS011;48683;48.084;17.272;2023-03-04T09:05:28;44.40;;;27.02;;
62610;SDS011;48683;48.084;17.272;2023-03-04T09:07:54;46.42;;;28.50;;
62610;SDS011;48683;48.084;17.272;2023-03-04T09:10:20;41.58;;;26.48;;
62610;SDS011;48683;48.084;17.272;2023-03-04T09:12:46;47.08;;;26.38;;
62610;SDS011;48683;48.084;17.272;2023-03-04T09:15:11;45.25;;;27.88;;
62610;SDS011;48683;48.084;17.272;2023-03-04T09:17:37;41.92;;;26.20;;
62610;SDS011;48683;48.084;17.272;2023-03-04T09:20:04;44.65;;;26.92;;
62610;SDS011;48683;48.084;17.272;2023-03-04T09:22:30;47.55;;;27.85;;
62610;SDS011;48683;48.084;17.272;2023-03-04T09:24:55;43.38;;;26.75;;
62610;SDS011;48683;48.084;17.272;2023-03-04T09:27:21;42.55;;;27.25;;
62610;SDS011;48683;48.084;17.272;2023-03-04T09:29:46;49.88;;;25.75;;
62610;SDS011;48683;48.084;17.272;2023-03-04T09:32:12;44.42;;;27.27;;
62610;SDS011;48683;48.084;17.272;2023-03-04T09:34:39;42.38;;;25.05;;
62610;SDS011;48683;48.084;17.272;2023-03-04T09:37:04;45.67;;;26.45;;
62610;SDS011;48683;48.084;17.272;2023-03-04T09:39:29;44.65;;;24.95;;
62610;SDS011;48683;48.084;17.272;2023-03-04T09:41:55;41.88;;;26.52;;
62610;SDS011;48683;48.084;17.272;2023-03-04T09:44:29;46.58;;;26.42;;
62610;SDS011;48683;48.084;17.272;2023-03-04T09:46:59;45.53;;;26.55;;
62610;SDS011;48683;48.084;17.272;2023-03-04T09:49:27;48.05;;;28.00;;
62610;SDS011;48683;48.084;17.272;2023-03-04T09:57:27;48.53;;;27.58;;
62610;SDS011;48683;48.084;17.272;2023-03-04T10:10:52;44.22;;;27.08;;
62610;SDS011;48683;48.084;17.272;2023-03-04T10:13:32;45.63;;;26.80;;
62610;SDS011;48683;48.084;17.272;2023-03-04T10:16:02;39.30;;;25.60;;
62610;SDS011;48683;48.084;17.272;2023-03-04T10:18:33;41.88;;;26.73;;
62610;SDS011;48683;48.084;17.272;2023-03-04T10:24:01;35.92;;;23.40;;
62610;SDS011;48683;48.084;17.272;2023-03-04T10:26:34;39.35;;;24.73;;
62610;SDS011;48683;48.084;17.272;2023-03-04T10:29:00;37.30;;;23.60;;
62610;SDS011;48683;48.084;17.272;2023-03-04T10:34:00;39.17;;;23.70;;
62610;SDS011;48683;48.084;17.272;2023-03-04T10:38:53;37.67;;;23.95;;
62610;SDS011;48683;48.084;17.272;2023-03-04T10:41:26;44.78;;;23.77;;
62610;SDS011;48683;48.084;17.272;2023-03-04T10:44:15;38.30;;;23.98;;
62610;SDS011;48683;48.084;17.272;2023-03-04T10:46:43;41.65;;;23.75;;
62610;SDS011;48683;48.084;17.272;2023-03-04T10:49:11;45.50;;;23.10;;
62610;SDS011;48683;48.084;17.272;2023-03-04T10:51:43;41.90;;;23.30;;
62610;SDS011;48683;48.084;17.272;2023-03-04T11:04:42;37.97;;;21.90;;
62610;SDS011;48683;48.084;17.272;2023-03-04T11:07:17;36.30;;;22.67;;
62610;SDS011;48683;48.084;17.272;2023-03-04T11:09:44;40.40;;;23.20;;
62610;SDS011;48683;48.084;17.272;2023-03-04T11:12:11;37.10;;;22.10;;
62610;SDS011;48683;48.084;17.272;2023-03-04T11:14:39;35.63;;;22.88;;
62610;SDS011;48683;48.084;17.272;2023-03-04T11:17:17;37.08;;;22.65;;
62610;SDS011;48683;48.084;17.272;2023-03-04T11:19:52;41.55;;;23.45;;
62610;SDS011;48683;48.084;17.272;2023-03-04T11:24:54;36.33;;;23.10;;
62610;SDS011;48683;48.084;17.272;2023-03-04T11:27:24;32.67;;;20.63;;
62610;SDS011;48683;48.084;17.272;2023-03-04T11:29:59;36.92;;;21.60;;
62610;SDS011;48683;48.084;17.272;2023-03-04T11:32:48;33.30;;;20.83;;
62610;SDS011;48683;48.084;17.272;2023-03-04T11:35:20;33.45;;;19.55;;
62610;SDS011;48683;48.084;17.272;2023-03-04T11:41:00;35.28;;;18.92;;
62610;SDS011;48683;48.084;17.272;2023-03-04T11:43:42;31.83;;;20.77;;
62610;SDS011;48683;48.084;17.272;2023-03-04T12:11:47;25.98;;;15.55;;
62610;SDS011;48683;48.084;17.272;2023-03-04T12:19:45;25.92;;;14.48;;
62610;SDS011;48683;48.084;17.272;2023-03-04T12:22:44;22.20;;;14.07;;
62610;SDS011;48683;48.084;17.272;2023-03-04T12:44:14;17.30;;;10.10;;
62610;SDS011;48683;48.084;17.272;2023-03-04T12:51:59;14.88;;;10.23;;
62610;SDS011;48683;48.084;17.272;2023-03-04T12:54:45;16.80;;;10.25;;
62610;SDS011;48683;48.084;17.272;2023-03-04T12:57:16;17.50;;;10.10;;
62610;SDS011;48683;48.084;17.272;2023-03-04T13:02:58;14.75;;;9.30;;
62610;SDS011;48683;48.084;17.272;2023-03-04T13:05:54;12.35;;;7.90;;
62610;SDS011;48683;48.084;17.272;2023-03-04T13:11:32;12.52;;;8.18;;
62610;SDS011;48683;48.084;17.272;2023-03-04T13:14:05;12.35;;;8.35;;
62610;SDS011;48683;48.084;17.272;2023-03-04T13:16:40;13.10;;;8.45;;
62610;SDS011;48683;48.084;17.272;2023-03-04T13:22:28;11.82;;;6.80;;
62610;SDS011;48683;48.084;17.272;2023-03-04T13:24:54;8.93;;;5.97;;
62610;SDS011;48683;48.084;17.272;2023-03-04T13:30:09;10.82;;;6.82;;
62610;SDS011;48683;48.084;17.272;2023-03-04T13:32:53;13.35;;;6.72;;
62610;SDS011;48683;48.084;17.272;2023-03-04T13:43:48;14.95;;;8.45;;
62610;SDS011;48683;48.084;17.272;2023-03-04T13:51:14;20.05;;;10.82;;
62610;SDS011;48683;48.084;17.272;2023-03-04T13:53:41;13.13;;;9.30;;
62610;SDS011;48683;48.084;17.272;2023-03-04T14:02:18;17.58;;;10.95;;
62610;SDS011;48683;48.084;17.272;2023-03-04T14:04:34;20.13;;;10.88;;
62610;SDS011;48683;48.084;17.272;2023-03-04T14:12:21;18.35;;;11.75;;
62610;SDS011;48683;48.084;17.272;2023-03-04T14:14:49;18.40;;;12.02;;
62610;SDS011;48683;48.084;17.272;2023-03-04T14:17:18;21.70;;;13.63;;
62610;SDS011;48683;48.084;17.272;2023-03-04T14:19:47;20.95;;;12.75;;
62610;SDS011;48683;48.084;17.272;2023-03-04T14:22:20;21.52;;;13.82;;
62610;SDS011;48683;48.084;17.272;2023-03-04T14:25:05;19.48;;;12.73;;
62610;SDS011;48683;48.084;17.272;2023-03-04T14:27:31;19.67;;;12.45;;
62610;SDS011;48683;48.084;17.272;2023-03-04T14:30:22;21.08;;;12.65;;
62610;SDS011;48683;48.084;17.272;2023-03-04T14:32:51;22.35;;;13.38;;
62610;SDS011;48683;48.084;17.272;2023-03-04T14:35:25;20.40;;;13.43;;
62610;SDS011;48683;48.084;17.272;2023-03-04T14:37:54;21.60;;;12.98;;
62610;SDS011;48683;48.084;17.272;2023-03-04T14:40:40;21.58;;;13.75;;
62610;SDS011;48683;48.084;17.272;2023-03-04T14:43:12;20.35;;;13.13;;
62610;SDS011;48683;48.084;17.272;2023-03-04T14:45:55;25.17;;;14.68;;
62610;SDS011;48683;48.084;17.272;2023-03-04T14:48:24;22.23;;;13.48;;
62610;SDS011;48683;48.084;17.272;2023-03-04T14:50:53;22.08;;;13.23;;
62610;SDS011;48683;48.084;17.272;2023-03-04T14:53:20;21.65;;;12.73;;
62610;SDS011;48683;48.084;17.272;2023-03-04T14:55:53;20.10;;;12.40;;
62610;SDS011;48683;48.084;17.272;2023-03-04T14:58:19;21.20;;;13.07;;
62610;SDS011;48683;48.084;17.272;2023-03-04T15:00:47;19.02;;;12.15;;
62610;SDS011;48683;48.084;17.272;2023-03-04T15:03:18;20.67;;;12.55;;
62610;SDS011;48683;48.084;17.272;2023-03-04T15:05:46;20.58;;;13.60;;
62610;SDS011;48683;48.084;17.272;2023-03-04T15:08:22;21.25;;;13.50;;
62610;SDS011;48683;48.084;17.272;2023-03-04T15:10:55;20.08;;;13.15;;
62610;SDS011;48683;48.084;17.272;2023-03-04T15:16:09;19.85;;;12.70;;
62610;SDS011;48683;48.084;17.272;2023-03-04T15:18:37;21.30;;;12.80;;
62610;SDS011;48683;48.084;17.272;2023-03-04T15:23:30;22.20;;;13.77;;
62610;SDS011;48683;48.084;17.272;2023-03-04T15:25:58;18.35;;;12.18;;
62610;SDS011;48683;48.084;17.272;2023-03-04T15:28:26;22.70;;;13.82;;
62610;SDS011;48683;48.084;17.272;2023-03-04T15:30:55;18.73;;;12.98;;
62610;SDS011;48683;48.084;17.272;2023-03-04T15:33:21;19.10;;;12.38;;
62610;SDS011;48683;48.084;17.272;2023-03-04T15:35:48;22.52;;;12.95;;
62610;SDS011;48683;48.084;17.272;2023-03-04T15:38:17;35.97;;;13.10;;
62610;SDS011;48683;48.084;17.272;2023-03-04T15:40:43;20.00;;;12.70;;
62610;SDS011;48683;48.084;17.272;2023-03-04T15:43:13;20.73;;;13.05;;
62610;SDS011;48683;48.084;17.272;2023-03-04T15:45:40;20.58;;;13.38;;
62610;SDS011;48683;48.084;17.272;2023-03-04T15:48:09;18.98;;;13.05;;
62610;SDS011;48683;48.084;17.272;2023-03-04T15:50:40;21.60;;;13.15;;
62610;SDS011;48683;48.084;17.272;2023-03-04T15:53:13;21.42;;;13.68;;
62610;SDS011;48683;48.084;17.272;2023-03-04T15:55:46;20.08;;;13.18;;
62610;SDS011;48683;48.084;17.272;2023-03-04T15:58:11;20.45;;;13.52;;
62610;SDS011;48683;48.084;17.272;2023-03-04T16:00:38;21.17;;;13.18;;
62610;SDS011;48683;48.084;17.272;2023-03-04T16:03:03;19.85;;;13.02;;
62610;SDS011;48683;48.084;17.272;2023-03-04T16:05:28;17.45;;;12.38;;
62610;SDS011;48683;48.084;17.272;2023-03-04T16:08:02;20.00;;;12.27;;
62610;SDS011;48683;48.084;17.272;2023-03-04T16:10:28;19.42;;;12.50;;
62610;SDS011;48683;48.084;17.272;2023-03-04T16:12:57;18.50;;;12.27;;
62610;SDS011;48683;48.084;17.272;2023-03-04T16:15:27;18.90;;;12.18;;
62610;SDS011;48683;48.084;17.272;2023-03-04T16:17:53;19.40;;;12.02;;
62610;SDS011;48683;48.084;17.272;2023-03-04T16:20:23;18.20;;;12.43;;
62610;SDS011;48683;48.084;17.272;2023-03-04T16:22:53;18.98;;;11.13;;
62610;SDS011;48683;48.084;17.272;2023-03-04T16:25:22;18.08;;;12.73;;
62610;SDS011;48683;48.084;17.272;2023-03-04T16:27:49;16.53;;;11.30;;
62610;SDS011;48683;48.084;17.272;2023-03-04T16:30:20;20.60;;;10.50;;
62610;SDS011;48683;48.084;17.272;2023-03-04T16:32:48;16.85;;;11.35;;
62610;SDS011;48683;48.084;17.272;2023-03-04T16:35:14;19.73;;;11.18;;
62610;SDS011;48683;48.084;17.272;2023-03-04T16:37:40;18.93;;;11.23;;